Leo Star I — ELXC6 — position and weather

sailwx.info

Track history (hours):
 
Tides and Currents Weather Stations Pressure Air Temp Water Temp Dewpoint Dewpoint Depression Visibility Wind Speed Wind Dir Waves Ship Positions

Leo Star I

Last reported at 2015-Aug-28 23:33 UTC. Time now 2015-Aug-29 00:24 UTC.
Position N 35°46' W 013°34'.

Length 157 m; draft 8.9 m.

Type: Cargo ship. MMSI: 636015065.

Date/timePositionNaut miles runAvg speedWind from/ knotsBaromVisibWave heightAir tempDewpointWater temp
2015-Aug-28 23:33N 35°46' W 013°34'5510.5
2015-Aug-28 18:17N 35°57' W 012°28'1010.8
2015-Aug-28 17:23N 35°60' W 012°16'910.8
2015-Aug-28 16:33N 36°00' W 012°05'1210.9
2015-Aug-28 15:27N 35°54' W 011°52'1011.0
2015-Aug-28 14:33N 35°51' W 011°40'6811.2
2015-Aug-28 08:29N 35°53' W 010°17'1311.1
2015-Aug-28 07:20N 35°54' W 010°01'910.9
2015-Aug-28 06:33N 35°55' W 009°50'1110.9
2015-Aug-28 05:30N 35°55' W 009°36'1010.9
2015-Aug-28 04:33N 35°55' W 009°24'1110.9
2015-Aug-28 03:33N 35°56' W 009°10'1111.1
2015-Aug-28 02:33N 35°56' W 008°57'1110.9
2015-Aug-28 01:33N 35°57' W 008°43'1610.9
2015-Aug-28 00:05N 35°57' W 008°23'611.2
2015-Aug-27 23:33N 35°57' W 008°16'2211.2
2015-Aug-27 21:33N 35°57' W 007°49'1111.0
2015-Aug-27 20:32N 35°57' W 007°35'1211.2
2015-Aug-27 19:30N 35°57' W 007°20'1011.0
2015-Aug-27 18:33N 35°57' W 007°08'  
2015-Aug-24 17:33N 37°53' E 009°19'1110.5
2015-Aug-24 16:33N 37°52' E 009°33'1110.9
2015-Aug-24 15:32N 37°48' E 009°46'1111.1
2015-Aug-24 14:32N 37°45' E 009°59'1110.9
2015-Aug-24 13:33N 37°42' E 010°12'1110.8
2015-Aug-24 12:32N 37°39' E 010°26'1110.6
2015-Aug-24 11:32N 37°36' E 010°38'1110.7
2015-Aug-24 10:33N 37°33' E 010°51'1111.1
2015-Aug-24 09:33N 37°31' E 011°05'1111.5
2015-Aug-24 08:33N 37°25' E 011°17'1211.5
2015-Aug-24 07:33N 37°19' E 011°30'1111.5
2015-Aug-24 06:33N 37°14' E 011°43'1211.5
2015-Aug-24 05:33N 37°08' E 011°55'1111.3
2015-Aug-24 04:33N 37°03' E 012°08'1111.0
2015-Aug-24 03:33N 36°58' E 012°20'1110.9
2015-Aug-24 02:33N 36°53' E 012°32'1110.5
2015-Aug-24 01:33N 36°48' E 012°44'1111.0
2015-Aug-24 00:33N 36°43' E 012°56'1111.1
2015-Aug-23 23:33N 36°38' E 013°09'1110.8
2015-Aug-23 22:33N 36°33' E 013°21'1111.1
2015-Aug-23 21:33N 36°28' E 013°33'1111.4
2015-Aug-23 20:33N 36°23' E 013°46'1111.1
2015-Aug-23 19:33N 36°18' E 013°58'1111.0
2015-Aug-23 18:33N 36°12' E 014°10'1111.3
2015-Aug-23 17:33N 36°07' E 014°22'1211.6
2015-Aug-23 16:33N 35°60' E 014°33'1110.9
2015-Aug-23 15:33N 35°53' E 014°44'1 1.3
2015-Aug-23 14:32N 35°52' E 014°45'0 0.0
2015-Aug-23 12:25N 35°52' E 014°45'0 0.0
2015-Aug-23 11:31N 35°52' E 014°45'0 0.0
2015-Aug-23 10:31N 35°52' E 014°45'0 0.0
2015-Aug-23 09:28N 35°52' E 014°45'0 0.0
2015-Aug-23 08:31N 35°52' E 014°45'0 0.0
2015-Aug-23 07:31N 35°52' E 014°45'0 0.0
2015-Aug-23 06:22N 35°52' E 014°45'0 0.0
2015-Aug-23 05:31N 35°52' E 014°45'0 0.0
2015-Aug-23 04:28N 35°52' E 014°45'0 0.0
2015-Aug-23 03:22N 35°52' E 014°45'0 0.0
2015-Aug-23 02:28N 35°52' E 014°45'0 0.0
2015-Aug-23 01:31N 35°52' E 014°45'0 0.0
2015-Aug-23 00:31N 35°52' E 014°45'0 0.0
2015-Aug-22 23:31N 35°52' E 014°45'0 0.0
2015-Aug-22 22:31N 35°52' E 014°45'0 0.0
2015-Aug-22 21:31N 35°52' E 014°45'0 0.0
2015-Aug-22 20:31N 35°52' E 014°45'2 2.4
2015-Aug-22 19:33N 35°50' E 014°46'1310.8
2015-Aug-22 18:22N 35°38' E 014°51'1211.3
2015-Aug-22 17:21N 35°29' E 015°00'  
Track history (hours):
 
Tides and Currents Weather Stations Pressure Air Temp Water Temp Dewpoint Dewpoint Depression Visibility Wind Speed Wind Dir Waves Ship Positions

Leo Star I

Last reported at 2015-Aug-28 23:33 UTC. Time now 2015-Aug-29 00:24 UTC.
Position N 35°46' W 013°34'.

Length 157 m; draft 8.9 m.

Type: Cargo ship. MMSI: 636015065.

Date/timePositionNaut miles runAvg speedWind from/ knotsBaromVisibWave heightAir tempDewpointWater temp
2015-Aug-28 23:33N 35°46' W 013°34'5510.5
2015-Aug-28 18:17N 35°57' W 012°28'1010.8
2015-Aug-28 17:23N 35°60' W 012°16'910.8
2015-Aug-28 16:33N 36°00' W 012°05'1210.9
2015-Aug-28 15:27N 35°54' W 011°52'1011.0
2015-Aug-28 14:33N 35°51' W 011°40'6811.2
2015-Aug-28 08:29N 35°53' W 010°17'1311.1
2015-Aug-28 07:20N 35°54' W 010°01'910.9
2015-Aug-28 06:33N 35°55' W 009°50'1110.9
2015-Aug-28 05:30N 35°55' W 009°36'1010.9
2015-Aug-28 04:33N 35°55' W 009°24'1110.9
2015-Aug-28 03:33N 35°56' W 009°10'1111.1
2015-Aug-28 02:33N 35°56' W 008°57'1110.9
2015-Aug-28 01:33N 35°57' W 008°43'1610.9
2015-Aug-28 00:05N 35°57' W 008°23'611.2
2015-Aug-27 23:33N 35°57' W 008°16'2211.2
2015-Aug-27 21:33N 35°57' W 007°49'1111.0
2015-Aug-27 20:32N 35°57' W 007°35'1211.2
2015-Aug-27 19:30N 35°57' W 007°20'1011.0
2015-Aug-27 18:33N 35°57' W 007°08'  
2015-Aug-24 17:33N 37°53' E 009°19'1110.5
2015-Aug-24 16:33N 37°52' E 009°33'1110.9
2015-Aug-24 15:32N 37°48' E 009°46'1111.1
2015-Aug-24 14:32N 37°45' E 009°59'1110.9
2015-Aug-24 13:33N 37°42' E 010°12'1110.8
2015-Aug-24 12:32N 37°39' E 010°26'1110.6
2015-Aug-24 11:32N 37°36' E 010°38'1110.7
2015-Aug-24 10:33N 37°33' E 010°51'1111.1
2015-Aug-24 09:33N 37°31' E 011°05'1111.5
2015-Aug-24 08:33N 37°25' E 011°17'1211.5
2015-Aug-24 07:33N 37°19' E 011°30'1111.5
2015-Aug-24 06:33N 37°14' E 011°43'1211.5
2015-Aug-24 05:33N 37°08' E 011°55'1111.3
2015-Aug-24 04:33N 37°03' E 012°08'1111.0
2015-Aug-24 03:33N 36°58' E 012°20'1110.9
2015-Aug-24 02:33N 36°53' E 012°32'1110.5
2015-Aug-24 01:33N 36°48' E 012°44'1111.0
2015-Aug-24 00:33N 36°43' E 012°56'1111.1
2015-Aug-23 23:33N 36°38' E 013°09'1110.8
2015-Aug-23 22:33N 36°33' E 013°21'1111.1
2015-Aug-23 21:33N 36°28' E 013°33'1111.4
2015-Aug-23 20:33N 36°23' E 013°46'1111.1
2015-Aug-23 19:33N 36°18' E 013°58'1111.0
2015-Aug-23 18:33N 36°12' E 014°10'1111.3
2015-Aug-23 17:33N 36°07' E 014°22'1211.6
2015-Aug-23 16:33N 35°60' E 014°33'1110.9
2015-Aug-23 15:33N 35°53' E 014°44'1 1.3
2015-Aug-23 14:32N 35°52' E 014°45'0 0.0
2015-Aug-23 12:25N 35°52' E 014°45'0 0.0
2015-Aug-23 11:31N 35°52' E 014°45'0 0.0
2015-Aug-23 10:31N 35°52' E 014°45'0 0.0
2015-Aug-23 09:28N 35°52' E 014°45'0 0.0
2015-Aug-23 08:31N 35°52' E 014°45'0 0.0
2015-Aug-23 07:31N 35°52' E 014°45'0 0.0
2015-Aug-23 06:22N 35°52' E 014°45'0 0.0
2015-Aug-23 05:31N 35°52' E 014°45'0 0.0
2015-Aug-23 04:28N 35°52' E 014°45'0 0.0
2015-Aug-23 03:22N 35°52' E 014°45'0 0.0
2015-Aug-23 02:28N 35°52' E 014°45'0 0.0
2015-Aug-23 01:31N 35°52' E 014°45'0 0.0
2015-Aug-23 00:31N 35°52' E 014°45'0 0.0
2015-Aug-22 23:31N 35°52' E 014°45'0 0.0
2015-Aug-22 22:31N 35°52' E 014°45'0 0.0
2015-Aug-22 21:31N 35°52' E 014°45'0 0.0
2015-Aug-22 20:31N 35°52' E 014°45'2 2.4
2015-Aug-22 19:33N 35°50' E 014°46'1310.8
2015-Aug-22 18:22N 35°38' E 014°51'1211.3
2015-Aug-22 17:21N 35°29' E 015°00'  

Dump ship's entire track history